Terminal Aerodrome Forecast
Issued by NWS Los Angeles, CA

Home | Current Version | Previous Version | Text Only | Print | Product List | Glossary On
Versions: 1 2 3 4 5 6 7 8 9 10 11 12 13 14 15 16 17 18 19 20 21 22 23 24 25 26 27 28 29 30 31 32 33 34 35 36 37 38 39
200
FTUS46 KLOX 060559
TAFSMX
TAF
KSMX 060559Z 0606/0706 VRB03KT P6SM VCSH SCT025 BKN040
     FM061800 28006KT P6SM VCSH SCT025 OVC040
     FM062100 30009KT P6SM VCSH SCT030 OVC050=

USA.gov is the U.S. government's official web portal to all federal, state and local government web resources and services.